createdAt,value
2022-08-25T00:00:38.936Z,95866.00
2022-08-25T00:04:42.848Z,95872.00
2022-08-25T00:08:46.941Z,95869.00
2022-08-25T00:12:49.843Z,95862.00
2022-08-25T00:16:56.093Z,95855.00
2022-08-25T00:20:59.142Z,95856.00
2022-08-25T00:25:02.411Z,95861.00
2022-08-25T00:29:05.523Z,95861.00
2022-08-25T00:33:10.210Z,95858.00
2022-08-25T00:37:13.031Z,95851.00
2022-08-25T00:41:20.478Z,95851.00
2022-08-25T00:45:24.289Z,95847.00
2022-08-25T00:49:31.266Z,95852.00
2022-08-25T00:53:34.283Z,95838.00
2022-08-25T00:57:41.255Z,95844.00
2022-08-25T01:01:44.096Z,95838.00
2022-08-25T01:05:49.054Z,95833.00
2022-08-25T01:09:53.863Z,95837.00
2022-08-25T01:13:58.125Z,95832.00
2022-08-25T01:18:01.532Z,95827.00
2022-08-25T01:22:06.763Z,95831.00
2022-08-25T01:26:13.146Z,95834.00
2022-08-25T01:30:16.162Z,95830.00
2022-08-25T01:34:20.186Z,95822.00
2022-08-25T01:38:24.593Z,95824.00
2022-08-25T01:42:38.536Z,95826.00
2022-08-25T01:46:41.716Z,95823.00
2022-08-25T01:50:45.073Z,95812.00
2022-08-25T01:54:49.426Z,95814.00
2022-08-25T01:58:52.185Z,95825.00
2022-08-25T02:02:55.637Z,95809.00
2022-08-25T02:06:58.814Z,95808.00
2022-08-25T02:11:03.464Z,95813.00
2022-08-25T02:15:08.801Z,95803.00
2022-08-25T02:19:12.922Z,95807.00
2022-08-25T02:23:16.876Z,95815.00
2022-08-25T02:27:20.980Z,95813.00
2022-08-25T02:31:25.275Z,95801.00
2022-08-25T02:35:28.052Z,95804.00
2022-08-25T02:39:30.906Z,95811.00
2022-08-25T02:43:35.022Z,95804.00
2022-08-25T02:47:37.856Z,95800.00
2022-08-25T02:51:40.625Z,95791.00
2022-08-25T02:55:43.413Z,95788.00
2022-08-25T02:59:48.476Z,95783.00
2022-08-25T03:03:52.325Z,95787.00
2022-08-25T03:07:55.199Z,95793.00
2022-08-25T03:11:57.968Z,95786.00
2022-08-25T03:16:03.266Z,95783.00
2022-08-25T03:20:07.942Z,95790.00
2022-08-25T03:24:10.702Z,95785.00
2022-08-25T03:28:12.523Z,95781.00
2022-08-25T03:32:16.658Z,95781.00
2022-08-25T03:36:19.430Z,95777.00
2022-08-25T03:40:23.218Z,95768.00
2022-08-25T03:44:26.227Z,95769.00
2022-08-25T03:48:30.374Z,95765.00
2022-08-25T03:52:33.203Z,95768.00
2022-08-25T03:56:35.967Z,95767.00
2022-08-25T04:00:38.997Z,95775.00
2022-08-25T04:04:43.107Z,95773.00
2022-08-25T04:08:46.391Z,95775.00
2022-08-25T04:12:49.858Z,95772.00
2022-08-25T04:16:53.806Z,95775.00
2022-08-25T04:21:05.297Z,95774.00
2022-08-25T04:25:09.010Z,95768.00
2022-08-25T04:29:14.394Z,95776.00
2022-08-25T04:33:17.171Z,95771.00
2022-08-25T04:37:21.338Z,95766.00
2022-08-25T04:41:25.443Z,95771.00
2022-08-25T04:45:28.247Z,95769.00
2022-08-25T04:49:31.946Z,95756.00
2022-08-25T04:53:36.741Z,95762.00
2022-08-25T04:57:39.526Z,95761.00
2022-08-25T05:01:43.662Z,95759.00
2022-08-25T05:05:46.389Z,95759.00
2022-08-25T05:09:50.510Z,95752.00
2022-08-25T05:13:55.583Z,95765.00
2022-08-25T05:17:58.717Z,95761.00
2022-08-25T05:22:01.470Z,95757.00
2022-08-25T05:26:08.071Z,95763.00
2022-08-25T05:30:12.678Z,95760.00
2022-08-25T05:34:15.545Z,95756.00
2022-08-25T05:38:18.438Z,95763.00
2022-08-25T05:42:23.877Z,95767.00
2022-08-25T05:46:31.637Z,95760.00
2022-08-25T05:50:34.796Z,95752.00
2022-08-25T05:54:37.818Z,95754.00
2022-08-25T05:58:42.729Z,95747.00
2022-08-25T06:02:46.349Z,95735.00
2022-08-25T06:06:53.327Z,95737.00
2022-08-25T06:10:56.550Z,95734.00
2022-08-25T06:15:01.694Z,95742.00
2022-08-25T06:19:04.893Z,95740.00
2022-08-25T06:23:07.665Z,95744.00
2022-08-25T06:27:10.435Z,95737.00
2022-08-25T06:31:14.745Z,95742.00
2022-08-25T06:35:19.708Z,95749.00
2022-08-25T06:39:22.627Z,95753.00
2022-08-25T06:43:25.583Z,95753.00
2022-08-25T06:47:29.726Z,95749.00
2022-08-25T06:51:32.684Z,95750.00
2022-08-25T06:55:36.169Z,95754.00
2022-08-25T06:59:41.668Z,95757.00
2022-08-25T07:03:45.805Z,95752.00
2022-08-25T07:07:50.762Z,95756.00
2022-08-25T07:11:54.160Z,95761.00
2022-08-25T07:15:57.026Z,95764.00
2022-08-25T07:20:02.308Z,95761.00
2022-08-25T07:24:07.046Z,95760.00
2022-08-25T07:28:09.859Z,95750.00
2022-08-25T07:32:13.231Z,95747.00
2022-08-25T07:36:17.838Z,95740.00
2022-08-25T07:40:25.101Z,95750.00
2022-08-25T07:44:28.670Z,95753.00
2022-08-25T07:48:31.496Z,95745.00
2022-08-25T07:52:35.710Z,95753.00
2022-08-25T07:56:43.059Z,95747.00
2022-08-25T08:00:49.330Z,95743.00
2022-08-25T08:04:54.514Z,95750.00
2022-08-25T08:08:59.811Z,95759.00
2022-08-25T08:13:03.180Z,95747.00
2022-08-25T08:17:07.946Z,95748.00
2022-08-25T08:21:13.242Z,95743.00
2022-08-25T08:25:26.573Z,95737.00
2022-08-25T08:29:30.539Z,95737.00
2022-08-25T08:33:40.869Z,95724.00
2022-08-25T08:37:43.817Z,95705.00
2022-08-25T08:42:22.151Z,95707.00
2022-08-25T08:46:26.856Z,95702.00
2022-08-25T08:50:33.825Z,95690.00
2022-08-25T08:54:41.281Z,95691.00
2022-08-25T08:58:50.748Z,95691.00
2022-08-25T09:03:01.725Z,95688.00
2022-08-25T09:07:13.086Z,95701.00
2022-08-25T09:11:27.066Z,95708.00
2022-08-25T09:16:09.647Z,95708.00
2022-08-25T09:20:38.783Z,95718.00
2022-08-25T09:24:55.225Z,95706.00
2022-08-25T09:29:03.258Z,95709.00
2022-08-25T09:33:21.714Z,95714.00
2022-08-25T09:37:25.497Z,95709.00
2022-08-25T09:41:44.950Z,95705.00
2022-08-25T09:45:49.867Z,95708.00
2022-08-25T09:50:00.262Z,95697.00
2022-08-25T09:54:10.589Z,95697.00
2022-08-25T09:58:19.074Z,95690.00
2022-08-25T10:02:25.242Z,95692.00
2022-08-25T10:06:34.539Z,95689.00
2022-08-25T10:10:44.773Z,95676.00
2022-08-25T10:14:48.622Z,95693.00
2022-08-25T10:19:09.910Z,95679.00
2022-08-25T10:23:15.871Z,95683.00
2022-08-25T10:27:24.590Z,95672.00
2022-08-25T10:31:36.811Z,95677.00
2022-08-25T10:35:58.546Z,95669.00
2022-08-25T10:40:16.736Z,95666.00
2022-08-25T10:44:43.011Z,95662.00
2022-08-25T10:48:57.121Z,95665.00
2022-08-25T10:53:17.990Z,95657.00
2022-08-25T10:57:28.866Z,95654.00
2022-08-25T11:01:44.077Z,95654.00
2022-08-25T11:05:54.461Z,95650.00
2022-08-25T11:10:04.085Z,95641.00
2022-08-25T11:14:11.619Z,95636.00
2022-08-25T11:18:15.850Z,95641.00
2022-08-25T11:22:24.546Z,95644.00
2022-08-25T11:26:37.045Z,95658.00
2022-08-25T11:30:42.191Z,95639.00
2022-08-25T11:34:45.109Z,95623.00
2022-08-25T11:38:55.270Z,95614.00
2022-08-25T11:43:08.252Z,95621.00
2022-08-25T11:47:36.046Z,95617.00
2022-08-25T11:51:43.774Z,95623.00
2022-08-25T11:55:52.232Z,95607.00
2022-08-25T12:00:07.946Z,95620.00
2022-08-25T12:04:33.506Z,95608.00
2022-08-25T12:08:51.627Z,95611.00
2022-08-25T12:13:16.598Z,95591.00
2022-08-25T12:17:25.857Z,95584.00
2022-08-25T12:21:34.419Z,95590.00
2022-08-25T12:26:04.006Z,95613.00
2022-08-25T12:30:18.460Z,95619.00
2022-08-25T12:34:43.715Z,95603.00
2022-08-25T12:38:52.450Z,95585.00
2022-08-25T12:43:04.523Z,95599.00
2022-08-25T12:47:14.241Z,95582.00
2022-08-25T12:51:19.953Z,95610.00
2022-08-25T12:55:28.074Z,95602.00
2022-08-25T12:59:38.116Z,95631.00
2022-08-25T13:04:05.724Z,95624.00
2022-08-25T13:08:33.736Z,95608.00
2022-08-25T13:12:44.162Z,95649.00
2022-08-25T13:16:55.294Z,95636.00
2022-08-25T13:21:06.771Z,95617.00
2022-08-25T13:25:17.862Z,95631.00
2022-08-25T13:29:29.364Z,95637.00
2022-08-25T13:33:38.994Z,95642.00
2022-08-25T13:37:43.723Z,95620.00
2022-08-25T13:41:48.842Z,95604.00
2022-08-25T13:45:59.778Z,95605.00
2022-08-25T13:50:18.858Z,95597.00
2022-08-25T13:54:27.321Z,95608.00
2022-08-25T13:58:38.624Z,95602.00
2022-08-25T14:02:51.307Z,95597.00
2022-08-25T14:07:15.170Z,95594.00
2022-08-25T14:11:34.304Z,95605.00
2022-08-25T14:15:38.342Z,95604.00
2022-08-25T14:19:47.621Z,95602.00
2022-08-25T14:23:50.610Z,95603.00
2022-08-25T14:28:13.828Z,95596.00
2022-08-25T14:32:17.887Z,95596.00
2022-08-25T14:36:22.203Z,95599.00
2022-08-25T14:40:25.215Z,95607.00
2022-08-25T14:44:27.965Z,95604.00
2022-08-25T14:48:35.414Z,95599.00
2022-08-25T14:52:39.542Z,95598.00
2022-08-25T14:56:43.413Z,95593.00
2022-08-25T15:00:48.083Z,95584.00
2022-08-25T15:04:53.541Z,95583.00
2022-08-25T15:09:11.375Z,95579.00
2022-08-25T15:13:15.034Z,95585.00
2022-08-25T15:17:18.532Z,95577.00
2022-08-25T15:21:21.350Z,95574.00
2022-08-25T15:25:25.483Z,95567.00
2022-08-25T15:29:30.615Z,95576.00
2022-08-25T15:33:33.387Z,95577.00
2022-08-25T15:37:36.714Z,95570.00
2022-08-25T15:41:42.757Z,95559.00
2022-08-25T15:45:46.498Z,95561.00
2022-08-25T15:49:49.441Z,95559.00
2022-08-25T15:53:53.012Z,95557.00
2022-08-25T15:57:58.062Z,95547.00
2022-08-25T16:02:01.147Z,95551.00
2022-08-25T16:06:05.089Z,95555.00
2022-08-25T16:10:08.370Z,95553.00
2022-08-25T16:14:12.827Z,95559.00
2022-08-25T16:18:17.797Z,95563.00
2022-08-25T16:22:20.731Z,95553.00
2022-08-25T16:26:24.367Z,95544.00
2022-08-25T16:30:28.585Z,95544.00
2022-08-25T16:34:32.406Z,95546.00
2022-08-25T16:38:37.963Z,95551.00
2022-08-25T16:42:41.155Z,95552.00
2022-08-25T16:46:45.499Z,95552.00
2022-08-25T16:50:49.599Z,95549.00
2022-08-25T16:55:10.046Z,95544.00
2022-08-25T16:59:13.775Z,95549.00
2022-08-25T17:03:18.591Z,95543.00
2022-08-25T17:07:23.931Z,95538.00
2022-08-25T17:11:29.470Z,95543.00
2022-08-25T17:15:32.269Z,95535.00
2022-08-25T17:19:36.422Z,95541.00
2022-08-25T17:23:40.151Z,95543.00
2022-08-25T17:27:43.959Z,95536.00
2022-08-25T17:31:48.394Z,95537.00
2022-08-25T17:35:55.163Z,95539.00
2022-08-25T17:40:02.963Z,95540.00
2022-08-25T17:44:07.174Z,95544.00
2022-08-25T17:48:10.214Z,95553.00
2022-08-25T17:52:14.687Z,95546.00
2022-08-25T17:56:21.057Z,95549.00
2022-08-25T18:00:24.754Z,95553.00
2022-08-25T18:04:29.705Z,95551.00
2022-08-25T18:08:35.074Z,95552.00
2022-08-25T18:12:38.810Z,95558.00
2022-08-25T18:16:42.238Z,95561.00
2022-08-25T18:20:47.107Z,95560.00
2022-08-25T18:24:51.847Z,95569.00
2022-08-25T18:28:54.677Z,95566.00
2022-08-25T18:32:58.755Z,95568.00
2022-08-25T18:37:22.151Z,95572.00
2022-08-25T18:41:29.681Z,95569.00
2022-08-25T18:45:35.157Z,95567.00
2022-08-25T18:49:38.352Z,95562.00
2022-08-25T18:53:50.263Z,95570.00
2022-08-25T18:57:55.296Z,95569.00
2022-08-25T19:02:00.567Z,95567.00
2022-08-25T19:06:06.384Z,95568.00
2022-08-25T19:10:09.842Z,95564.00
2022-08-25T19:14:14.149Z,95564.00
2022-08-25T19:18:17.221Z,95574.00
2022-08-25T19:22:40.231Z,95572.00
2022-08-25T19:26:44.786Z,95572.00
2022-08-25T19:30:50.541Z,95579.00
2022-08-25T19:34:54.752Z,95572.00
2022-08-25T19:39:00.461Z,95572.00
2022-08-25T19:43:03.270Z,95575.00
2022-08-25T19:47:09.193Z,95578.00
2022-08-25T19:51:16.784Z,95581.00
2022-08-25T19:55:24.668Z,95575.00
2022-08-25T19:59:34.162Z,95582.00
2022-08-25T20:03:46.939Z,95578.00
2022-08-25T20:07:50.154Z,95573.00
2022-08-25T20:11:53.435Z,95577.00
2022-08-25T20:15:56.262Z,95578.00
2022-08-25T20:20:09.700Z,95578.00
2022-08-25T20:24:30.931Z,95576.00
2022-08-25T20:28:33.598Z,95583.00
2022-08-25T20:32:39.510Z,95588.00
2022-08-25T20:36:49.900Z,95583.00
2022-08-25T20:40:53.259Z,95573.00
2022-08-25T20:44:56.100Z,95579.00
2022-08-25T20:48:58.863Z,95579.00
2022-08-25T20:53:05.663Z,95578.00
2022-08-25T20:57:15.704Z,95582.00
2022-08-25T21:01:23.167Z,95586.00
2022-08-25T21:05:26.206Z,95583.00
2022-08-25T21:09:30.852Z,95580.00
2022-08-25T21:13:33.652Z,95574.00
2022-08-25T21:17:37.454Z,95576.00
2022-08-25T21:21:40.426Z,95580.00
2022-08-25T21:25:44.511Z,95578.00
2022-08-25T21:29:54.601Z,95582.00
2022-08-25T21:33:59.317Z,95577.00
2022-08-25T21:38:03.518Z,95574.00
2022-08-25T21:42:08.095Z,95572.00
2022-08-25T21:46:13.305Z,95568.00
2022-08-25T21:50:16.195Z,95566.00
2022-08-25T21:54:19.553Z,95565.00
2022-08-25T21:58:28.179Z,95567.00
2022-08-25T22:02:31.766Z,95562.00
2022-08-25T22:06:35.848Z,95562.00
2022-08-25T22:10:44.298Z,95560.00
2022-08-25T22:14:48.597Z,95560.00
2022-08-25T22:18:51.639Z,95558.00
2022-08-25T22:22:54.391Z,95554.00
2022-08-25T22:26:57.687Z,95553.00
2022-08-25T22:31:04.736Z,95548.00
2022-08-25T22:35:11.210Z,95541.00
2022-08-25T22:39:15.762Z,95548.00
2022-08-25T22:43:18.657Z,95548.00
2022-08-25T22:47:22.773Z,95541.00
2022-08-25T22:51:27.585Z,95531.00
2022-08-25T22:55:30.532Z,95534.00
2022-08-25T22:59:33.333Z,95531.00
2022-08-25T23:03:37.494Z,95535.00
2022-08-25T23:07:47.142Z,95536.00
2022-08-25T23:11:51.260Z,95531.00
2022-08-25T23:15:54.212Z,95527.00
2022-08-25T23:19:58.446Z,95530.00
2022-08-25T23:24:01.402Z,95531.00
2022-08-25T23:28:04.977Z,95528.00
2022-08-25T23:32:08.263Z,95521.00
2022-08-25T23:36:15.212Z,95527.00
2022-08-25T23:40:20.049Z,95516.00
2022-08-25T23:44:24.551Z,95511.00
2022-08-25T23:48:29.053Z,95511.00
2022-08-25T23:52:33.358Z,95510.00
2022-08-25T23:56:36.537Z,95510.00
